Time;durP1;ratioP1;P1;durP2;ratioP2;P2;SDS_P1;SDS_P2;PMS_P1;PMS_P2;Temp;Humidity;BMP_temperature;BMP_pressure;BME280_temperature;BME280_humidity;BME280_pressure;Samples;Min_cycle;Max_cycle;Signal;HPM_P1;HPM_P2
2022/08/03 00:01:30;;;;;;;4.28;1.73;;;18.80;99.90;;;;;;4917842;29;20050;-82
2022/08/03 00:03:55;;;;;;;5.95;1.33;;;18.80;99.90;;;;;;4907168;29;20103;-82
2022/08/03 00:06:21;;;;;;;4.75;1.40;;;18.70;99.90;;;;;;4918521;29;20564;-81
2022/08/03 00:08:46;;;;;;;8.02;1.40;;;18.70;99.90;;;;;;4901400;29;20161;-81
2022/08/03 00:11:12;;;;;;;7.20;1.90;;;18.60;99.90;;;;;;4914816;29;20036;-82
2022/08/03 00:13:37;;;;;;;7.93;1.80;;;18.70;99.90;;;;;;4916821;29;20042;-81
2022/08/03 00:16:03;;;;;;;6.75;1.95;;;18.60;99.90;;;;;;4916527;29;20271;-82
2022/08/03 00:18:29;;;;;;;5.32;1.05;;;18.60;99.90;;;;;;4916312;29;20108;-81
2022/08/03 00:20:55;;;;;;;6.53;1.25;;;18.60;99.90;;;;;;4918750;29;20042;-82
2022/08/03 00:23:20;;;;;;;3.28;1.02;;;18.60;99.90;;;;;;4919880;29;20040;-82
2022/08/03 00:25:46;;;;;;;10.30;1.45;;;18.60;99.90;;;;;;4916373;29;20042;-81
2022/08/03 00:28:11;;;;;;;5.82;1.83;;;18.60;99.90;;;;;;4919430;29;20043;-82
2022/08/03 00:30:42;;;;;;;5.05;1.05;;;18.50;99.90;;;;;;4915819;29;20056;-82
2022/08/03 00:33:09;;;;;;;4.38;1.13;;;18.50;99.90;;;;;;4916370;29;20047;-82
2022/08/03 00:35:35;;;;;;;3.42;1.00;;;18.50;99.90;;;;;;4916512;29;20066;-82
2022/08/03 00:38:01;;;;;;;6.00;1.92;;;18.50;99.90;;;;;;4916422;29;20777;-82
2022/08/03 00:40:27;;;;;;;7.32;1.33;;;18.50;99.90;;;;;;4915783;29;20048;-81
2022/08/03 00:42:55;;;;;;;4.75;1.45;;;18.50;99.90;;;;;;4916476;29;20076;-81
2022/08/03 00:45:23;;;;;;;5.10;1.40;;;18.40;99.90;;;;;;4916581;29;20079;-82
2022/08/03 00:47:49;;;;;;;3.70;1.42;;;18.40;99.90;;;;;;4915911;29;20136;-81
2022/08/03 00:50:16;;;;;;;6.55;2.28;;;18.40;99.90;;;;;;4915782;29;20095;-82
2022/08/03 00:52:42;;;;;;;4.65;0.70;;;18.40;99.90;;;;;;4903610;29;20059;-80
2022/08/03 00:55:09;;;;;;;7.65;1.20;;;18.40;99.90;;;;;;4918348;29;20052;-81
2022/08/03 00:57:36;;;;;;;3.80;0.85;;;18.40;99.90;;;;;;4918117;29;20044;-81
2022/08/03 01:00:02;;;;;;;4.57;0.82;;;18.40;99.90;;;;;;4916745;29;20512;-81
2022/08/03 01:02:28;;;;;;;4.97;1.33;;;18.30;99.90;;;;;;4907452;29;20075;-81
2022/08/03 01:04:54;;;;;;;5.28;1.58;;;18.30;99.90;;;;;;4903067;29;20391;-81
2022/08/03 01:07:32;;;;;;;5.20;0.60;;;18.30;99.90;;;;;;4918591;29;20036;-81
2022/08/03 01:10:01;;;;;;;8.02;2.40;;;18.30;99.90;;;;;;4901479;29;20047;-81
2022/08/03 01:12:45;;;;;;;2.60;1.13;;;18.30;99.90;;;;;;4918591;29;20038;-81
2022/08/03 01:15:26;;;;;;;2.50;1.27;;;18.20;99.90;;;;;;4907713;29;20121;-82
2022/08/03 01:18:02;;;;;;;5.25;1.77;;;18.20;99.90;;;;;;4914727;29;20292;-82
2022/08/03 01:20:33;;;;;;;5.70;1.33;;;18.20;99.90;;;;;;4915206;29;20047;-82
2022/08/03 01:23:19;;;;;;;1.92;1.23;;;18.20;99.90;;;;;;4902603;29;20106;-83
2022/08/03 01:26:13;;;;;;;6.07;1.88;;;18.20;99.90;;;;;;4918748;29;20047;-83
2022/08/03 01:28:53;;;;;;;5.68;1.27;;;18.20;99.90;;;;;;4915394;29;20052;-83
2022/08/03 01:31:26;;;;;;;5.28;1.27;;;18.10;99.90;;;;;;4911049;29;20048;-83
2022/08/03 01:33:58;;;;;;;7.00;2.75;;;18.10;99.90;;;;;;4899753;29;20087;-83
2022/08/03 01:36:28;;;;;;;5.68;2.63;;;18.10;99.90;;;;;;4915774;29;20040;-83
2022/08/03 01:38:59;;;;;;;8.07;1.10;;;18.10;99.90;;;;;;4914651;29;20055;-83
2022/08/03 01:41:34;;;;;;;5.88;2.53;;;18.10;99.90;;;;;;4914339;29;20044;-83
2022/08/03 01:44:02;;;;;;;3.35;1.70;;;18.10;99.90;;;;;;4915205;29;20044;-83
2022/08/03 01:46:30;;;;;;;6.47;2.30;;;18.00;99.90;;;;;;4914736;29;20040;-83
2022/08/03 01:48:58;;;;;;;3.67;2.00;;;17.90;99.90;;;;;;4914621;29;20052;-83
2022/08/03 01:51:24;;;;;;;4.65;1.45;;;17.90;99.90;;;;;;4898644;29;20040;-83
2022/08/03 01:53:53;;;;;;;4.32;1.55;;;17.80;99.90;;;;;;4914876;29;20059;-84
2022/08/03 01:56:21;;;;;;;4.50;2.50;;;17.80;99.90;;;;;;4914810;29;20068;-83
2022/08/03 01:58:48;;;;;;;4.88;2.15;;;17.70;99.90;;;;;;4914409;29;20044;-82
2022/08/03 02:01:15;;;;;;;5.80;1.38;;;17.70;99.90;;;;;;4914284;29;20036;-82
2022/08/03 02:03:43;;;;;;;5.32;1.30;;;17.70;99.90;;;;;;4914731;29;20040;-82
2022/08/03 02:06:10;;;;;;;5.53;1.58;;;17.70;99.90;;;;;;4897921;29;20138;-81
2022/08/03 02:08:38;;;;;;;7.55;2.15;;;17.70;99.90;;;;;;4906059;29;20530;-82
2022/08/03 02:11:05;;;;;;;5.78;1.98;;;17.70;99.90;;;;;;4914536;29;20062;-82
2022/08/03 02:13:33;;;;;;;4.97;1.88;;;17.60;99.90;;;;;;4911690;29;20101;-82
2022/08/03 02:16:01;;;;;;;3.05;1.55;;;17.60;99.90;;;;;;4914613;29;20036;-82
2022/08/03 02:18:28;;;;;;;4.18;1.92;;;17.60;99.90;;;;;;4914693;29;20418;-82
2022/08/03 02:20:55;;;;;;;5.78;3.20;;;17.60;99.90;;;;;;4906810;29;20067;-82
2022/08/03 02:23:21;;;;;;;7.75;2.15;;;17.60;99.90;;;;;;4933404;29;20036;-82
2022/08/03 02:25:52;;;;;;;5.53;2.88;;;17.60;99.90;;;;;;4920624;29;20069;-84
2022/08/03 02:28:28;;;;;;;6.65;2.60;;;17.60;99.90;;;;;;4904484;29;20110;-83
2022/08/03 02:30:55;;;;;;;5.70;2.05;;;17.50;99.90;;;;;;4920733;29;20123;-83
2022/08/03 02:33:29;;;;;;;7.47;1.95;;;17.50;99.90;;;;;;4916415;29;20115;-82
2022/08/03 02:35:56;;;;;;;7.13;2.58;;;17.60;99.90;;;;;;4899159;29;20183;-84
2022/08/03 02:38:27;;;;;;;5.50;2.40;;;17.60;99.90;;;;;;4914430;29;20507;-83
2022/08/03 02:40:56;;;;;;;6.68;2.00;;;17.50;99.90;;;;;;4914238;29;20052;-83
2022/08/03 02:43:23;;;;;;;8.88;2.58;;;17.50;99.90;;;;;;4914252;29;20044;-83
2022/08/03 02:45:51;;;;;;;5.55;2.30;;;17.50;99.90;;;;;;4914571;29;20112;-83
2022/08/03 02:48:22;;;;;;;9.55;2.85;;;17.50;99.90;;;;;;4914329;29;20044;-83
2022/08/03 02:50:50;;;;;;;6.57;2.05;;;17.50;99.90;;;;;;4914091;29;20087;-83
2022/08/03 02:53:17;;;;;;;6.35;2.55;;;17.40;99.90;;;;;;4914400;29;20119;-82
2022/08/03 02:55:45;;;;;;;10.57;3.33;;;17.40;99.90;;;;;;4903115;29;20051;-82
2022/08/03 02:58:13;;;;;;;5.15;2.22;;;17.40;99.90;;;;;;4917378;29;20098;-83
2022/08/03 03:00:40;;;;;;;8.20;2.50;;;17.40;99.90;;;;;;4913421;29;20447;-83
2022/08/03 03:03:06;;;;;;;6.25;2.20;;;17.40;99.90;;;;;;4898420;29;20047;-83
2022/08/03 03:05:33;;;;;;;4.72;2.28;;;17.40;99.90;;;;;;4915014;29;20189;-84
2022/08/03 03:07:59;;;;;;;8.88;2.15;;;17.50;99.90;;;;;;4914299;29;20119;-83
2022/08/03 03:10:25;;;;;;;7.60;3.17;;;17.40;99.90;;;;;;4914313;29;20076;-84
2022/08/03 03:12:55;;;;;;;7.53;2.20;;;17.40;99.90;;;;;;4914154;29;20062;-83
2022/08/03 03:15:22;;;;;;;7.15;2.75;;;17.40;99.90;;;;;;4913709;29;20040;-82
2022/08/03 03:17:50;;;;;;;4.55;1.85;;;17.40;99.90;;;;;;4897701;29;20196;-83
2022/08/03 03:20:16;;;;;;;4.40;2.25;;;17.40;99.90;;;;;;4913551;29;20507;-83
2022/08/03 03:22:43;;;;;;;8.00;2.13;;;17.30;99.90;;;;;;4913693;29;20156;-82
2022/08/03 03:25:09;;;;;;;6.20;2.05;;;17.30;99.90;;;;;;4913960;29;20392;-83
2022/08/03 03:27:35;;;;;;;7.72;2.42;;;17.30;99.90;;;;;;4898202;29;20127;-83
2022/08/03 03:30:03;;;;;;;6.93;2.20;;;17.30;99.90;;;;;;4897859;29;20131;-82
2022/08/03 03:32:29;;;;;;;9.00;2.85;;;17.30;99.90;;;;;;4913898;29;20470;-83
2022/08/03 03:35:08;;;;;;;4.68;2.13;;;17.30;99.90;;;;;;4913645;29;20047;-83
2022/08/03 03:37:34;;;;;;;6.30;2.33;;;17.30;99.90;;;;;;4913686;29;20047;-83
2022/08/03 03:39:59;;;;;;;6.13;1.30;;;17.20;99.90;;;;;;4914642;29;20047;-82
2022/08/03 03:42:26;;;;;;;7.80;2.20;;;17.20;99.90;;;;;;4917534;29;20059;-83
2022/08/03 03:44:52;;;;;;;7.03;2.10;;;17.20;99.90;;;;;;4917407;29;20051;-83
2022/08/03 03:47:17;;;;;;;6.82;1.98;;;17.10;99.90;;;;;;4901499;29;20056;-83
2022/08/03 03:49:43;;;;;;;5.68;1.67;;;17.10;99.90;;;;;;4901059;29;20095;-83
2022/08/03 03:52:09;;;;;;;6.28;2.60;;;17.00;99.90;;;;;;4917025;29;20178;-83
2022/08/03 03:54:40;;;;;;;9.90;3.13;;;17.00;99.90;;;;;;4917435;29;20357;-82
2022/08/03 03:57:05;;;;;;;5.45;2.38;;;17.10;99.90;;;;;;4916964;29;20048;-83
2022/08/03 03:59:31;;;;;;;6.63;2.83;;;17.00;99.90;;;;;;4916704;29;20091;-83
2022/08/03 04:02:04;;;;;;;7.05;2.33;;;17.00;99.90;;;;;;4910354;29;20036;-83
2022/08/03 04:12:49;;;;;;;8.20;2.45;;;17.10;99.90;;;;;;4916942;29;19919;-83
2022/08/03 04:15:18;;;;;;;7.43;2.35;;;17.20;99.90;;;;;;4916572;29;20059;-83
2022/08/03 04:17:45;;;;;;;6.28;2.70;;;17.30;99.90;;;;;;4916322;29;20076;-82
2022/08/03 04:20:12;;;;;;;5.82;2.63;;;17.30;99.90;;;;;;4916242;29;20130;-82
2022/08/03 04:22:39;;;;;;;7.85;2.65;;;17.40;99.90;;;;;;4916844;29;20043;-83
2022/08/03 04:25:08;;;;;;;7.78;2.17;;;17.50;99.90;;;;;;4916397;29;20044;-83
2022/08/03 04:27:40;;;;;;;8.27;2.45;;;17.40;99.90;;;;;;4916708;29;20048;-83
2022/08/03 04:30:07;;;;;;;10.15;3.60;;;17.50;99.90;;;;;;4916547;29;20047;-84
2022/08/03 04:32:35;;;;;;;5.05;2.55;;;17.50;99.90;;;;;;4916706;29;20048;-83
2022/08/03 04:35:01;;;;;;;6.18;2.42;;;17.50;99.90;;;;;;4916135;29;20079;-82
2022/08/03 04:37:42;;;;;;;8.90;2.33;;;17.60;99.90;;;;;;4916205;29;20101;-82
2022/08/03 04:40:13;;;;;;;3.38;1.95;;;17.60;99.90;;;;;;4916066;29;20144;-82
2022/08/03 04:42:40;;;;;;;5.47;1.67;;;17.60;99.90;;;;;;4892990;29;20048;-82
2022/08/03 04:45:10;;;;;;;12.57;3.22;;;17.70;99.90;;;;;;4900691;29;20040;-82
2022/08/03 04:47:37;;;;;;;4.93;1.85;;;17.70;99.90;;;;;;4916137;29;20103;-81
2022/08/03 04:50:05;;;;;;;14.50;2.75;;;17.80;99.90;;;;;;4916135;29;20040;-82
2022/08/03 04:52:31;;;;;;;2.83;1.33;;;17.80;99.90;;;;;;4915089;29;20055;-82
2022/08/03 04:54:56;;;;;;;6.65;2.33;;;17.90;99.90;;;;;;4916020;29;20048;-82
2022/08/03 04:57:22;;;;;;;5.20;1.98;;;17.90;99.90;;;;;;4916098;29;20046;-82
2022/08/03 04:59:51;;;;;;;5.45;2.15;;;17.90;99.90;;;;;;4915564;29;21290;-83
2022/08/03 05:02:17;;;;;;;6.72;2.03;;;18.00;99.90;;;;;;4915748;29;20560;-82
2022/08/03 05:04:45;;;;;;;6.95;1.70;;;18.00;99.90;;;;;;4915831;29;20511;-82
2022/08/03 05:07:11;;;;;;;8.77;3.10;;;18.00;99.90;;;;;;4915900;29;20128;-82
2022/08/03 05:09:37;;;;;;;5.68;1.55;;;18.20;99.90;;;;;;4915688;29;20534;-82
2022/08/03 05:12:04;;;;;;;7.50;2.28;;;18.20;99.90;;;;;;4907524;29;20040;-82
2022/08/03 05:14:29;;;;;;;4.68;1.50;;;18.30;99.90;;;;;;4913833;29;20533;-82
2022/08/03 05:16:55;;;;;;;5.07;1.98;;;18.30;99.90;;;;;;4918791;29;20068;-82
2022/08/03 05:19:21;;;;;;;7.05;2.08;;;18.40;99.90;;;;;;4918208;29;20411;-81
2022/08/03 05:21:46;;;;;;;8.18;1.98;;;18.40;99.90;;;;;;4895477;29;20526;-82
2022/08/03 05:24:12;;;;;;;7.40;1.85;;;18.50;99.90;;;;;;4915111;29;20044;-82
2022/08/03 05:26:37;;;;;;;6.40;2.15;;;18.60;99.90;;;;;;4915223;29;20060;-81
2022/08/03 05:29:03;;;;;;;6.15;2.15;;;18.60;99.90;;;;;;4899674;29;20086;-82
2022/08/03 05:31:29;;;;;;;8.73;2.38;;;18.70;99.90;;;;;;4914986;29;20087;-82
2022/08/03 05:33:55;;;;;;;6.45;1.80;;;18.80;99.90;;;;;;4915706;29;20051;-83
2022/08/03 05:36:21;;;;;;;7.75;1.73;;;18.80;99.90;;;;;;4915328;29;20036;-82
2022/08/03 05:38:47;;;;;;;8.13;2.15;;;18.90;99.90;;;;;;4915240;29;20063;-83
2022/08/03 05:41:12;;;;;;;5.75;1.92;;;19.10;99.90;;;;;;4915406;29;20052;-83
2022/08/03 05:43:38;;;;;;;4.45;2.50;;;19.20;99.90;;;;;;4915454;29;20040;-83
2022/08/03 05:46:04;;;;;;;5.68;2.08;;;19.30;99.90;;;;;;4915066;29;20044;-82
2022/08/03 05:48:32;;;;;;;5.53;1.67;;;19.40;99.90;;;;;;4884032;29;20040;-82
2022/08/03 05:50:57;;;;;;;5.38;1.75;;;19.50;99.90;;;;;;4899309;29;20052;-83
2022/08/03 05:53:23;;;;;;;9.07;1.90;;;19.50;99.90;;;;;;4914963;29;20040;-83
2022/08/03 05:55:48;;;;;;;11.60;2.17;;;19.60;99.90;;;;;;4915326;29;20472;-83
2022/08/03 05:58:14;;;;;;;4.30;2.08;;;19.60;99.90;;;;;;4901728;29;20048;-83
2022/08/03 06:00:40;;;;;;;5.75;1.80;;;19.70;99.90;;;;;;4904417;29;20079;-83
2022/08/03 06:03:05;;;;;;;7.07;2.17;;;19.70;99.90;;;;;;4914676;29;20047;-83
2022/08/03 06:05:35;;;;;;;5.28;1.65;;;19.80;99.90;;;;;;4915229;29;20135;-83
2022/08/03 06:08:01;;;;;;;5.95;1.67;;;19.80;99.90;;;;;;4883720;29;20412;-83
2022/08/03 06:10:27;;;;;;;7.10;2.63;;;19.80;99.90;;;;;;4901958;29;20524;-82
2022/08/03 06:12:52;;;;;;;5.80;2.40;;;19.80;99.90;;;;;;4898877;29;20068;-83
2022/08/03 06:15:18;;;;;;;8.60;2.95;;;19.90;99.90;;;;;;4906995;29;20049;-83
2022/08/03 06:17:45;;;;;;;4.53;2.45;;;20.00;99.90;;;;;;4899001;29;20120;-83
2022/08/03 06:20:11;;;;;;;7.20;2.53;;;20.10;99.90;;;;;;4914529;29;20577;-83
2022/08/03 06:22:37;;;;;;;7.90;2.78;;;20.20;99.90;;;;;;4914686;29;20127;-83
2022/08/03 06:25:02;;;;;;;5.60;2.05;;;20.30;99.90;;;;;;4917271;29;20127;-84
2022/08/03 06:27:28;;;;;;;5.85;2.38;;;20.40;99.90;;;;;;4930297;29;20040;-83
2022/08/03 06:29:53;;;;;;;8.25;2.65;;;20.50;99.90;;;;;;4918198;29;20032;-84
2022/08/03 06:32:21;;;;;;;8.20;2.20;;;20.60;99.90;;;;;;4913241;29;20036;-83
2022/08/03 06:34:47;;;;;;;11.35;2.55;;;20.60;99.90;;;;;;4925659;29;20059;-83
2022/08/03 06:37:13;;;;;;;4.95;2.00;;;20.70;99.90;;;;;;4927387;29;20044;-83
2022/08/03 06:39:38;;;;;;;8.32;2.08;;;20.80;99.90;;;;;;4917064;29;20120;-83
2022/08/03 06:42:04;;;;;;;9.25;2.42;;;20.90;99.90;;;;;;4916275;29;20571;-83
2022/08/03 06:44:30;;;;;;;4.88;3.10;;;20.90;99.90;;;;;;4915735;29;20048;-83
2022/08/03 06:46:55;;;;;;;10.30;2.78;;;20.90;99.90;;;;;;4915425;29;20054;-83
2022/08/03 06:49:21;;;;;;;8.88;2.80;;;21.00;99.90;;;;;;4898249;29;20075;-83
2022/08/03 06:51:47;;;;;;;6.32;2.60;;;21.10;99.90;;;;;;4911070;29;20048;-84
2022/08/03 06:54:12;;;;;;;6.28;2.28;;;21.10;99.90;;;;;;4915471;29;20050;-83
2022/08/03 06:56:38;;;;;;;6.47;2.45;;;21.30;99.90;;;;;;4914951;29;20483;-84
2022/08/03 06:59:03;;;;;;;6.25;1.50;;;21.50;99.90;;;;;;4914807;29;20075;-83
2022/08/03 07:01:29;;;;;;;8.90;2.78;;;21.70;99.90;;;;;;4914506;29;20044;-84
2022/08/03 07:03:55;;;;;;;6.68;2.28;;;21.80;99.90;;;;;;4905047;29;20497;-83
2022/08/03 07:06:20;;;;;;;7.78;2.45;;;21.80;99.90;;;;;;4917944;29;20043;-83
2022/08/03 07:08:46;;;;;;;6.43;2.72;;;21.80;99.90;;;;;;4918275;29;20052;-84
2022/08/03 07:11:12;;;;;;;7.47;2.35;;;21.80;99.90;;;;;;4899664;29;20046;-83
2022/08/03 07:13:40;;;;;;;6.57;2.92;;;21.80;99.90;;;;;;4915063;29;20048;-83
2022/08/03 07:16:05;;;;;;;7.95;2.17;;;21.80;99.90;;;;;;4919693;29;20051;-84
2022/08/03 07:18:31;;;;;;;9.57;2.17;;;21.90;99.90;;;;;;4901498;29;20467;-84
2022/08/03 07:20:57;;;;;;;8.80;2.03;;;21.90;99.90;;;;;;4904335;29;20109;-82
2022/08/03 07:23:24;;;;;;;7.43;2.20;;;22.00;99.90;;;;;;4905426;29;20046;-83
2022/08/03 07:25:49;;;;;;;11.90;3.75;;;22.10;99.90;;;;;;4905459;29;20054;-82
2022/08/03 07:28:15;;;;;;;10.38;2.80;;;22.20;99.90;;;;;;4920647;29;20127;-83
2022/08/03 07:30:40;;;;;;;10.13;2.03;;;22.40;99.90;;;;;;4907850;29;20130;-84
2022/08/03 07:33:06;;;;;;;9.88;2.22;;;22.30;99.90;;;;;;4914495;29;20123;-84
2022/08/03 07:38:07;;;;;;;6.65;1.98;;;22.40;99.90;;;;;;5010799;23;20071;-84
2022/08/03 07:40:58;;;;;;;8.77;2.42;;;22.60;99.90;;;;;;4880271;29;20500;-83
2022/08/03 07:43:29;;;;;;;8.07;2.20;;;22.80;99.90;;;;;;4900929;29;20055;-85
2022/08/03 07:54:25;;;;;;;8.77;2.00;;;23.50;99.90;;;;;;4757093;30;20047;-84
2022/08/03 07:57:38;;;;;;;9.23;2.53;;;23.70;99.90;;;;;;4741962;30;20063;-84
2022/08/03 08:00:24;;;;;;;7.35;1.92;;;24.00;99.90;;;;;;4719083;30;20173;-84
2022/08/03 08:02:50;;;;;;;15.07;2.85;;;24.30;99.90;;;;;;4719691;30;20056;-83
2022/08/03 08:05:18;;;;;;;5.93;2.20;;;24.50;99.90;;;;;;4808249;29;20530;-83
2022/08/03 08:07:44;;;;;;;11.20;2.45;;;24.60;99.90;;;;;;4932330;29;20067;-83
2022/08/03 08:10:11;;;;;;;8.10;1.60;;;24.80;99.90;;;;;;4916758;29;20082;-82
2022/08/03 08:12:39;;;;;;;8.15;1.42;;;24.80;99.90;;;;;;4940064;28;20040;-82
2022/08/03 08:15:05;;;;;;;6.43;1.67;;;24.90;99.90;;;;;;4917833;29;20054;-82
2022/08/03 08:17:44;;;;;;;6.55;1.33;;;25.00;99.90;;;;;;4938276;29;20446;-82
2022/08/03 08:20:14;;;;;;;10.07;1.63;;;25.20;99.90;;;;;;4946535;29;20266;-82
2022/08/03 08:22:39;;;;;;;9.32;3.13;;;25.40;99.90;;;;;;4910353;29;20048;-82
2022/08/03 08:25:05;;;;;;;11.35;1.45;;;25.50;99.90;;;;;;4928849;29;20038;-81
2022/08/03 08:27:31;;;;;;;7.85;1.52;;;25.60;99.90;;;;;;4927062;29;20159;-82
2022/08/03 08:29:56;;;;;;;7.40;1.77;;;25.70;99.90;;;;;;4927085;29;20048;-81
2022/08/03 08:32:22;;;;;;;8.45;2.03;;;25.80;99.90;;;;;;4925818;29;20052;-81
2022/08/03 08:34:47;;;;;;;4.22;1.60;;;25.80;99.90;;;;;;4924828;29;20036;-82
2022/08/03 08:37:13;;;;;;;10.43;1.65;;;25.90;99.90;;;;;;4923868;29;20048;-81
2022/08/03 08:39:39;;;;;;;9.82;2.60;;;26.10;99.90;;;;;;4922267;29;20126;-81
2022/08/03 08:42:05;;;;;;;6.65;2.05;;;26.10;99.90;;;;;;4924963;29;20476;-81
2022/08/03 08:44:30;;;;;;;5.22;1.75;;;26.20;99.90;;;;;;4922817;29;20075;-81
2022/08/03 08:47:01;;;;;;;9.82;1.65;;;26.20;99.90;;;;;;4924397;29;20040;-81
2022/08/03 08:49:28;;;;;;;7.63;1.40;;;26.20;99.90;;;;;;4923336;29;20111;-81
2022/08/03 08:51:55;;;;;;;15.50;2.55;;;26.50;99.90;;;;;;4924046;29;20051;-81
2022/08/03 08:54:21;;;;;;;8.40;1.75;;;26.60;99.90;;;;;;4923444;29;20127;-80
2022/08/03 08:56:50;;;;;;;9.88;1.77;;;26.80;99.90;;;;;;4931456;29;20072;-81
2022/08/03 08:59:17;;;;;;;8.63;2.45;;;26.90;99.90;;;;;;4922619;29;20427;-81
2022/08/03 09:01:42;;;;;;;9.88;2.05;;;27.20;99.90;;;;;;4921873;29;20055;-81
2022/08/03 09:04:08;;;;;;;7.80;1.63;;;27.40;99.90;;;;;;4913220;29;20044;-81
2022/08/03 09:06:34;;;;;;;7.80;2.33;;;27.60;99.90;;;;;;4910315;29;20135;-81
2022/08/03 09:09:00;;;;;;;5.38;1.80;;;27.50;99.90;;;;;;4917292;29;20119;-80
2022/08/03 09:11:25;;;;;;;8.23;2.25;;;27.50;99.90;;;;;;4917366;29;20158;-80
2022/08/03 09:13:51;;;;;;;7.53;1.58;;;27.40;99.90;;;;;;4914837;29;20047;-80
2022/08/03 09:16:21;;;;;;;7.95;1.67;;;27.30;99.90;;;;;;4910567;29;20040;-79
2022/08/03 09:18:50;;;;;;;6.88;2.30;;;27.30;99.90;;;;;;4921104;29;20054;-81
2022/08/03 09:21:30;;;;;;;7.68;1.60;;;27.40;99.90;;;;;;4937017;29;20050;-81
2022/08/03 09:23:58;;;;;;;12.50;2.72;;;27.60;99.90;;;;;;4921840;29;20044;-81
2022/08/03 09:26:28;;;;;;;16.15;9.88;;;27.80;99.90;;;;;;4908928;29;20097;-81
2022/08/03 09:29:03;;;;;;;8.63;2.83;;;28.00;99.90;;;;;;4913466;29;20044;-81
2022/08/03 09:31:33;;;;;;;;;;;28.00;99.90;;;;;;4921591;29;20036;-81
2022/08/03 09:34:06;;;;;;;12.55;4.38;;;28.10;99.90;;;;;;4921239;29;19930;-81
2022/08/03 09:36:38;;;;;;;6.23;2.30;;;28.40;99.90;;;;;;4927271;29;20059;-81
2022/08/03 09:39:10;;;;;;;6.65;2.50;;;28.50;99.90;;;;;;4909051;29;20585;-81
2022/08/03 09:41:40;;;;;;;7.22;2.08;;;28.40;99.90;;;;;;4918002;29;20049;-80
2022/08/03 09:44:07;;;;;;;15.40;2.25;;;28.40;99.90;;;;;;4899279;29;20488;-80
2022/08/03 09:46:47;;;;;;;9.98;1.52;;;28.70;99.90;;;;;;4920404;29;20055;-81
2022/08/03 09:49:12;;;;;;;11.80;1.98;;;29.10;99.90;;;;;;4917738;29;20044;-80
2022/08/03 09:51:39;;;;;;;7.82;1.65;;;29.20;99.90;;;;;;4925008;29;20404;-80
2022/08/03 09:54:05;;;;;;;6.47;1.58;;;29.40;99.90;;;;;;4927364;29;20050;-80
2022/08/03 09:56:43;;;;;;;7.32;1.30;;;29.40;99.90;;;;;;4942641;28;20052;-80
2022/08/03 09:59:10;;;;;;;5.80;1.50;;;29.60;99.90;;;;;;4918094;29;20091;-80
2022/08/03 10:01:40;;;;;;;6.85;1.63;;;29.60;99.90;;;;;;4925011;29;20047;-80
2022/08/03 10:04:11;;;;;;;3.47;1.30;;;29.80;99.90;;;;;;4937366;29;20486;-80
2022/08/03 10:06:37;;;;;;;6.10;1.65;;;29.80;99.20;;;;;;4925797;29;20048;-80
2022/08/03 10:09:14;;;;;;;9.15;1.75;;;29.60;98.90;;;;;;4920266;29;20082;-79
2022/08/03 10:11:41;;;;;;;6.55;0.93;;;29.30;99.90;;;;;;4920373;29;20048;-80
2022/08/03 10:14:09;;;;;;;7.45;1.75;;;29.50;99.90;;;;;;4918929;29;20071;-80
2022/08/03 10:16:37;;;;;;;6.70;1.58;;;29.90;98.70;;;;;;4937019;28;20517;-80
2022/08/03 10:19:05;;;;;;;5.82;1.13;;;29.90;97.80;;;;;;4942736;29;20589;-80
2022/08/03 10:21:33;;;;;;;8.85;1.88;;;29.80;97.90;;;;;;4923687;29;20115;-81
2022/08/03 10:24:02;;;;;;;10.10;2.85;;;29.80;98.50;;;;;;4932693;29;20080;-80
2022/08/03 10:26:33;;;;;;;5.13;1.90;;;29.90;97.70;;;;;;4902451;29;20068;-81
2022/08/03 10:29:01;;;;;;;6.28;0.98;;;29.90;97.60;;;;;;4920666;29;20048;-80
2022/08/03 10:31:39;;;;;;;5.80;1.60;;;29.90;96.00;;;;;;4928709;29;20082;-81
2022/08/03 10:34:12;;;;;;;6.97;1.48;;;30.30;95.40;;;;;;4926923;29;20044;-81
2022/08/03 10:36:40;;;;;;;8.00;1.98;;;30.50;95.50;;;;;;4927082;29;20040;-81
2022/08/03 10:39:06;;;;;;;10.52;2.60;;;30.70;95.40;;;;;;4921417;29;20028;-81
2022/08/03 10:41:38;;;;;;;7.20;1.90;;;30.90;94.80;;;;;;4923368;29;20148;-81
2022/08/03 10:44:09;;;;;;;7.30;1.63;;;31.20;94.00;;;;;;4919894;29;20100;-80
2022/08/03 10:46:38;;;;;;;5.57;1.20;;;31.50;92.30;;;;;;4918815;29;20042;-81
2022/08/03 10:49:05;;;;;;;10.05;2.22;;;31.40;92.20;;;;;;4931961;29;20040;-81
2022/08/03 10:51:32;;;;;;;7.88;1.35;;;31.50;91.20;;;;;;4915312;29;20036;-81
2022/08/03 10:54:00;;;;;;;10.60;2.10;;;31.70;90.90;;;;;;4917292;29;20079;-81
2022/08/03 10:59:17;;;;;;;9.73;1.58;;;31.80;87.60;;;;;;4923969;29;20047;-81
2022/08/03 11:01:51;;;;;;;13.82;1.52;;;31.80;88.30;;;;;;4911933;29;20373;-82
2022/08/03 11:04:19;;;;;;;10.20;1.70;;;31.90;87.40;;;;;;4933888;29;20112;-82
2022/08/03 11:06:45;;;;;;;6.85;1.90;;;32.00;85.60;;;;;;4913806;29;20520;-81
2022/08/03 11:09:11;;;;;;;12.88;1.42;;;31.90;85.10;;;;;;4920480;29;20043;-81
2022/08/03 11:11:42;;;;;;;11.02;1.83;;;32.00;84.20;;;;;;4912546;29;20048;-81
2022/08/03 11:14:14;;;;;;;13.45;2.58;;;31.80;85.00;;;;;;4924684;29;20395;-81
2022/08/03 11:16:44;;;;;;;8.70;1.70;;;32.00;84.50;;;;;;4934582;29;20084;-81
2022/08/03 11:19:21;;;;;;;6.80;1.55;;;31.70;81.50;;;;;;4908870;29;20131;-81
2022/08/03 11:21:49;;;;;;;12.02;1.63;;;31.50;82.00;;;;;;4933226;29;20040;-82
2022/08/03 11:24:42;;;;;;;10.55;1.90;;;31.20;84.40;;;;;;4914054;29;20555;-81
2022/08/03 11:27:13;;;;;;;11.82;2.20;;;31.00;85.40;;;;;;4911834;29;20040;-81
2022/08/03 11:30:08;;;;;;;12.05;3.17;;;31.00;86.50;;;;;;4917257;29;20058;-81
2022/08/03 11:32:37;;;;;;;6.45;1.45;;;31.30;83.30;;;;;;4911796;29;20047;-81
2022/08/03 11:35:06;;;;;;;11.77;2.92;;;31.50;82.70;;;;;;4920365;29;20507;-81
2022/08/03 11:37:31;;;;;;;8.30;2.53;;;31.70;80.90;;;;;;4916575;29;20064;-81
2022/08/03 11:39:57;;;;;;;6.25;2.45;;;31.60;80.90;;;;;;4917279;29;20047;-82
2022/08/03 11:42:22;;;;;;;6.47;2.55;;;31.30;80.20;;;;;;4916172;29;20064;-81
2022/08/03 11:44:53;;;;;;;15.27;5.15;;;31.50;82.00;;;;;;4918213;29;20240;-81
2022/08/03 11:47:20;;;;;;;4.75;1.92;;;31.60;82.20;;;;;;4918006;29;20048;-81
2022/08/03 11:49:47;;;;;;;9.05;1.30;;;31.80;80.80;;;;;;4909187;29;20115;-82
2022/08/03 11:52:13;;;;;;;7.35;1.55;;;32.20;79.00;;;;;;4901094;29;20054;-81
2022/08/03 11:54:39;;;;;;;14.95;2.13;;;32.50;77.90;;;;;;4917209;29;20042;-81
2022/08/03 11:57:05;;;;;;;10.63;1.98;;;32.70;76.70;;;;;;4919258;29;20048;-82
2022/08/03 11:59:32;;;;;;;10.45;1.58;;;32.70;75.30;;;;;;4916598;29;20051;-81
2022/08/03 12:02:08;;;;;;;8.13;1.33;;;32.70;74.70;;;;;;4919388;29;20123;-81
2022/08/03 12:04:53;;;;;;;12.52;1.88;;;32.70;73.40;;;;;;4924637;29;20171;-82
2022/08/03 12:07:19;;;;;;;8.32;2.08;;;32.70;75.00;;;;;;4925943;29;20131;-81
2022/08/03 12:10:11;;;;;;;8.95;1.63;;;33.10;74.00;;;;;;4925728;29;20536;-81
2022/08/03 12:12:38;;;;;;;12.25;2.17;;;33.50;71.00;;;;;;4924396;29;20131;-82
2022/08/03 12:15:04;;;;;;;9.25;1.48;;;33.60;72.00;;;;;;4920055;29;20048;-82
2022/08/03 12:17:33;;;;;;;7.85;1.00;;;33.80;71.00;;;;;;4907806;29;20036;-82
2022/08/03 12:19:59;;;;;;;7.85;1.67;;;34.20;69.50;;;;;;4919740;29;20344;-82
2022/08/03 12:22:36;;;;;;;10.20;1.70;;;34.50;67.90;;;;;;4918065;29;20055;-82
2022/08/03 12:25:06;;;;;;;6.90;1.73;;;34.50;66.40;;;;;;4917648;29;20044;-82
2022/08/03 12:27:32;;;;;;;5.80;1.45;;;34.40;65.10;;;;;;4925418;29;20103;-82
2022/08/03 12:30:00;;;;;;;6.07;2.17;;;34.50;64.20;;;;;;4926020;29;20063;-81
2022/08/03 12:32:27;;;;;;;9.20;2.00;;;34.60;61.90;;;;;;4924772;29;20072;-82
2022/08/03 12:34:54;;;;;;;9.18;1.42;;;34.50;61.50;;;;;;4924794;29;20515;-81
2022/08/03 12:37:23;;;;;;;10.52;2.03;;;34.40;62.10;;;;;;4925309;29;20099;-81
2022/08/03 12:39:54;;;;;;;5.10;1.52;;;34.50;60.70;;;;;;4919016;29;20063;-82
2022/08/03 12:42:19;;;;;;;5.82;1.10;;;34.50;60.70;;;;;;4918184;29;20135;-81
2022/08/03 12:44:47;;;;;;;5.78;1.13;;;34.80;60.60;;;;;;4918242;29;20047;-80
2022/08/03 12:47:14;;;;;;;9.35;1.10;;;35.20;61.90;;;;;;4918314;29;20048;-81
2022/08/03 12:49:48;;;;;;;10.80;1.25;;;35.40;60.20;;;;;;4918471;29;20052;-81
2022/08/03 12:52:15;;;;;;;7.07;1.95;;;35.60;56.80;;;;;;4918776;29;20537;-81
2022/08/03 12:54:41;;;;;;;10.43;1.88;;;35.60;58.20;;;;;;4918401;29;20040;-81
2022/08/03 12:57:12;;;;;;;4.43;0.88;;;35.60;57.00;;;;;;4918787;29;20044;-82
2022/08/03 12:59:45;;;;;;;5.97;1.23;;;35.50;55.90;;;;;;4917570;29;20048;-81
2022/08/03 13:02:16;;;;;;;6.65;1.23;;;35.40;57.30;;;;;;4918039;29;20051;-81
2022/08/03 13:04:41;;;;;;;10.82;1.50;;;35.50;56.90;;;;;;4918489;29;20056;-80
2022/08/03 13:07:09;;;;;;;8.32;1.67;;;35.40;56.80;;;;;;4917353;29;20491;-80
2022/08/03 13:09:45;;;;;;;6.45;1.63;;;35.50;56.20;;;;;;4917546;29;20044;-80
2022/08/03 13:12:12;;;;;;;6.43;1.35;;;35.40;55.70;;;;;;4916319;29;20048;-79
2022/08/03 13:14:38;;;;;;;6.18;1.77;;;35.20;56.50;;;;;;4917199;29;20114;-80